Airfield :
LOGIN :

Register | Disclaimer

   EN    FR    IT 

 










Legend :    VFR   Marginal VFR   IFR   Intensive IFR   Very Intensive IFR
Visi :
Ceiling :
>= 8 km
>= 3000ft
5 to 8 km
1000 to 3000 ft
1500m to 5 km
500 to 1000 ft
800 to 1500m
200 to 500 ft
< 800m
< 200 ft
Symbols :   Thunderstorms  Fog  Heavy snow  Heavy precipitations  Wind > 20 kt
SIGMETs :     Misc.  Thunderstorms  Icing  Turbulence  Mountain Waves  Volcanic Ashes






- Airport Elevation : 412 ft
- IATA code : ORE


LFOJ - Orleans

CURRENT METAR :
  • 200100Z AUTO VRB02KT 8000 NSC 16/16 Q1013

EXPIRED METARs :
  • 200030Z AUTO 00000KT CAVOK 17/16 Q1013
  • 200000Z AUTO 19004KT CAVOK 17/17 Q1013
  • 192330Z AUTO 18005KT CAVOK 18/17 Q1012
  • 192300Z AUTO 00000KT CAVOK 18/17 Q1012
  • 192230Z AUTO 35004KT CAVOK 19/17 Q1012

TAF TAF LFOJ
Valid from the 19 at 21:00 until the 20 at 21:00 UTC


192000Z 1921/2021 19013KT 7000 BKN040
TEMPO 1921/1922 10015G25KT 3000 TSRA BKN040CB
BECMG 2003/2005 4000 BR
PROB40
TEMPO 2006/2007 0800 FG
BECMG 2007/2009 8000 NSW OVC005
BECMG 2010/2012 BKN015
PROB30
TEMPO 2015/2018 4900 -SHRA BKN060TCU



MET'MAP, your aeronautical weather chart ! - Copyright ORBIFLY December 2007 - Disclaimer

ORBIFLY MET'MAP TEAM :

Programming & Development : Alexandra Zaïnal
Concept & original design : Baudouin d'Aumeries
Assistance for programming : Marc-Olivier Méhu
Technical & hardware support : Manuel Goepfert

Contact : metmap@orbifly.com




SOURCES & CREDITS :

   NOAA